sensor_id;sensor_type;location;lat;lon;timestamp;P1;durP1;ratioP1;P2;durP2;ratioP2
41952;SDS011;63613;28.200;112.870;2023-10-08T00:00:45;26.75;;;18.52;;
41952;SDS011;63613;28.200;112.870;2023-10-08T00:03:15;21.17;;;17.30;;
41952;SDS011;63613;28.200;112.870;2023-10-08T00:05:43;31.15;;;19.48;;
41952;SDS011;63613;28.200;112.870;2023-10-08T00:08:11;23.73;;;18.30;;
41952;SDS011;63613;28.200;112.870;2023-10-08T00:10:42;21.05;;;18.17;;
41952;SDS011;63613;28.200;112.870;2023-10-08T00:13:10;22.15;;;17.05;;
41952;SDS011;63613;28.200;112.870;2023-10-08T00:15:41;19.00;;;16.60;;
41952;SDS011;63613;28.200;112.870;2023-10-08T00:18:22;23.98;;;18.85;;
41952;SDS011;63613;28.200;112.870;2023-10-08T00:20:49;23.30;;;18.30;;
41952;SDS011;63613;28.200;112.870;2023-10-08T00:23:34;27.60;;;19.50;;
41952;SDS011;63613;28.200;112.870;2023-10-08T00:26:07;23.10;;;18.70;;
41952;SDS011;63613;28.200;112.870;2023-10-08T00:28:34;22.77;;;18.67;;
41952;SDS011;63613;28.200;112.870;2023-10-08T00:31:05;22.35;;;18.10;;
41952;SDS011;63613;28.200;112.870;2023-10-08T00:33:37;25.17;;;18.88;;
41952;SDS011;63613;28.200;112.870;2023-10-08T00:36:05;22.02;;;18.83;;
41952;SDS011;63613;28.200;112.870;2023-10-08T00:38:44;24.65;;;19.02;;
41952;SDS011;63613;28.200;112.870;2023-10-08T00:41:19;24.85;;;19.80;;
41952;SDS011;63613;28.200;112.870;2023-10-08T00:43:53;25.45;;;20.20;;
41952;SDS011;63613;28.200;112.870;2023-10-08T00:46:26;25.10;;;19.30;;
41952;SDS011;63613;28.200;112.870;2023-10-08T00:49:01;23.15;;;18.70;;
41952;SDS011;63613;28.200;112.870;2023-10-08T00:51:52;21.23;;;18.30;;
41952;SDS011;63613;28.200;112.870;2023-10-08T00:54:47;21.92;;;18.05;;
41952;SDS011;63613;28.200;112.870;2023-10-08T00:57:30;21.80;;;18.27;;
41952;SDS011;63613;28.200;112.870;2023-10-08T01:00:04;23.15;;;17.95;;
41952;SDS011;63613;28.200;112.870;2023-10-08T01:02:37;20.98;;;18.08;;
41952;SDS011;63613;28.200;112.870;2023-10-08T01:05:26;23.52;;;18.40;;
41952;SDS011;63613;28.200;112.870;2023-10-08T01:08:12;22.63;;;17.92;;
41952;SDS011;63613;28.200;112.870;2023-10-08T01:11:15;20.95;;;17.40;;
41952;SDS011;63613;28.200;112.870;2023-10-08T01:13:43;22.00;;;17.38;;
41952;SDS011;63613;28.200;112.870;2023-10-08T01:16:11;20.58;;;17.58;;
41952;SDS011;63613;28.200;112.870;2023-10-08T01:18:39;20.27;;;18.08;;
41952;SDS011;63613;28.200;112.870;2023-10-08T01:21:15;22.95;;;18.98;;
41952;SDS011;63613;28.200;112.870;2023-10-08T01:24:05;18.58;;;16.58;;
41952;SDS011;63613;28.200;112.870;2023-10-08T01:26:36;23.05;;;17.67;;
41952;SDS011;63613;28.200;112.870;2023-10-08T01:29:09;20.27;;;18.17;;
41952;SDS011;63613;28.200;112.870;2023-10-08T01:31:45;20.40;;;17.70;;
41952;SDS011;63613;28.200;112.870;2023-10-08T01:34:36;20.13;;;17.50;;
41952;SDS011;63613;28.200;112.870;2023-10-08T01:37:04;20.95;;;17.65;;
41952;SDS011;63613;28.200;112.870;2023-10-08T01:39:37;20.17;;;17.92;;
41952;SDS011;63613;28.200;112.870;2023-10-08T01:42:08;21.38;;;17.10;;
41952;SDS011;63613;28.200;112.870;2023-10-08T01:44:54;20.15;;;17.83;;
41952;SDS011;63613;28.200;112.870;2023-10-08T01:47:21;21.58;;;18.05;;
41952;SDS011;63613;28.200;112.870;2023-10-08T01:49:50;22.55;;;18.33;;
41952;SDS011;63613;28.200;112.870;2023-10-08T01:52:26;21.88;;;18.83;;
41952;SDS011;63613;28.200;112.870;2023-10-08T01:55:13;21.15;;;18.88;;
41952;SDS011;63613;28.200;112.870;2023-10-08T01:57:46;20.38;;;17.13;;
41952;SDS011;63613;28.200;112.870;2023-10-08T02:00:14;19.85;;;17.52;;
41952;SDS011;63613;28.200;112.870;2023-10-08T02:02:49;21.70;;;19.35;;
41952;SDS011;63613;28.200;112.870;2023-10-08T02:05:16;22.38;;;18.20;;
41952;SDS011;63613;28.200;112.870;2023-10-08T02:07:44;20.77;;;18.25;;
41952;SDS011;63613;28.200;112.870;2023-10-08T02:10:11;20.95;;;17.60;;
41952;SDS011;63613;28.200;112.870;2023-10-08T02:12:39;20.35;;;18.23;;
41952;SDS011;63613;28.200;112.870;2023-10-08T02:15:07;22.67;;;18.80;;
41952;SDS011;63613;28.200;112.870;2023-10-08T02:17:36;20.67;;;18.55;;
41952;SDS011;63613;28.200;112.870;2023-10-08T02:20:06;21.75;;;18.77;;
41952;SDS011;63613;28.200;112.870;2023-10-08T02:22:34;20.35;;;18.20;;
41952;SDS011;63613;28.200;112.870;2023-10-08T02:25:02;20.08;;;17.95;;
41952;SDS011;63613;28.200;112.870;2023-10-08T02:27:36;21.23;;;18.92;;
41952;SDS011;63613;28.200;112.870;2023-10-08T02:30:03;21.23;;;18.23;;
41952;SDS011;63613;28.200;112.870;2023-10-08T02:32:34;21.10;;;18.30;;
41952;SDS011;63613;28.200;112.870;2023-10-08T02:35:21;20.30;;;18.02;;
41952;SDS011;63613;28.200;112.870;2023-10-08T02:37:49;20.90;;;18.70;;
41952;SDS011;63613;28.200;112.870;2023-10-08T02:40:17;19.85;;;17.77;;
41952;SDS011;63613;28.200;112.870;2023-10-08T02:42:54;20.08;;;18.15;;
41952;SDS011;63613;28.200;112.870;2023-10-08T02:45:27;20.10;;;17.92;;
41952;SDS011;63613;28.200;112.870;2023-10-08T02:47:54;20.73;;;18.52;;
41952;SDS011;63613;28.200;112.870;2023-10-08T02:50:22;20.15;;;18.05;;
41952;SDS011;63613;28.200;112.870;2023-10-08T02:52:49;19.85;;;17.75;;
41952;SDS011;63613;28.200;112.870;2023-10-08T02:55:19;20.95;;;18.73;;
41952;SDS011;63613;28.200;112.870;2023-10-08T02:58:07;21.45;;;19.25;;
41952;SDS011;63613;28.200;112.870;2023-10-08T03:00:39;20.95;;;18.75;;
41952;SDS011;63613;28.200;112.870;2023-10-08T03:03:09;20.05;;;17.88;;
41952;SDS011;63613;28.200;112.870;2023-10-08T03:05:46;21.67;;;19.45;;
41952;SDS011;63613;28.200;112.870;2023-10-08T03:08:16;20.67;;;18.48;;
41952;SDS011;63613;28.200;112.870;2023-10-08T03:10:47;20.60;;;18.30;;
41952;SDS011;63613;28.200;112.870;2023-10-08T03:13:35;20.10;;;18.10;;
41952;SDS011;63613;28.200;112.870;2023-10-08T03:16:04;20.50;;;18.40;;
41952;SDS011;63613;28.200;112.870;2023-10-08T03:18:33;18.92;;;17.02;;
41952;SDS011;63613;28.200;112.870;2023-10-08T03:21:08;19.75;;;17.73;;
41952;SDS011;63613;28.200;112.870;2023-10-08T03:23:48;19.38;;;17.35;;
41952;SDS011;63613;28.200;112.870;2023-10-08T03:26:16;17.95;;;16.15;;
41952;SDS011;63613;28.200;112.870;2023-10-08T03:28:57;18.88;;;16.95;;
41952;SDS011;63613;28.200;112.870;2023-10-08T03:31:31;18.63;;;16.73;;
41952;SDS011;63613;28.200;112.870;2023-10-08T03:34:19;16.95;;;15.23;;
41952;SDS011;63613;28.200;112.870;2023-10-08T03:36:52;17.83;;;16.02;;
41952;SDS011;63613;28.200;112.870;2023-10-08T03:39:25;17.90;;;16.15;;
41952;SDS011;63613;28.200;112.870;2023-10-08T03:42:30;18.50;;;16.60;;
41952;SDS011;63613;28.200;112.870;2023-10-08T03:45:08;18.20;;;16.40;;
41952;SDS011;63613;28.200;112.870;2023-10-08T03:47:40;17.40;;;15.80;;
41952;SDS011;63613;28.200;112.870;2023-10-08T03:50:11;17.13;;;15.40;;
41952;SDS011;63613;28.200;112.870;2023-10-08T03:52:42;17.55;;;15.77;;
41952;SDS011;63613;28.200;112.870;2023-10-08T03:55:12;17.00;;;15.35;;
41952;SDS011;63613;28.200;112.870;2023-10-08T03:57:48;17.73;;;16.02;;
41952;SDS011;63613;28.200;112.870;2023-10-08T04:00:22;17.52;;;15.25;;
41952;SDS011;63613;28.200;112.870;2023-10-08T04:02:59;17.13;;;15.43;;
41952;SDS011;63613;28.200;112.870;2023-10-08T04:05:34;16.88;;;15.18;;
41952;SDS011;63613;28.200;112.870;2023-10-08T04:08:10;16.52;;;14.93;;
41952;SDS011;63613;28.200;112.870;2023-10-08T04:10:45;16.58;;;14.85;;
41952;SDS011;63613;28.200;112.870;2023-10-08T04:13:35;15.85;;;14.30;;
41952;SDS011;63613;28.200;112.870;2023-10-08T04:16:13;16.17;;;14.68;;
41952;SDS011;63613;28.200;112.870;2023-10-08T04:18:45;16.10;;;14.40;;
41952;SDS011;63613;28.200;112.870;2023-10-08T04:21:32;16.92;;;15.20;;
41952;SDS011;63613;28.200;112.870;2023-10-08T04:23:59;15.82;;;14.27;;
41952;SDS011;63613;28.200;112.870;2023-10-08T04:26:30;16.63;;;15.00;;
41952;SDS011;63613;28.200;112.870;2023-10-08T04:29:00;15.80;;;14.07;;
41952;SDS011;63613;28.200;112.870;2023-10-08T04:31:30;15.25;;;13.75;;
41952;SDS011;63613;28.200;112.870;2023-10-08T04:34:04;15.90;;;14.30;;
41952;SDS011;63613;28.200;112.870;2023-10-08T04:36:48;15.27;;;13.63;;
41952;SDS011;63613;28.200;112.870;2023-10-08T04:39:23;14.68;;;13.30;;
41952;SDS011;63613;28.200;112.870;2023-10-08T04:41:59;15.93;;;14.23;;
41952;SDS011;63613;28.200;112.870;2023-10-08T04:44:37;15.35;;;13.82;;
41952;SDS011;63613;28.200;112.870;2023-10-08T04:47:14;15.50;;;13.88;;
41952;SDS011;63613;28.200;112.870;2023-10-08T04:49:59;13.77;;;12.48;;
41952;SDS011;63613;28.200;112.870;2023-10-08T04:52:30;15.20;;;13.32;;
41952;SDS011;63613;28.200;112.870;2023-10-08T04:54:59;14.40;;;12.98;;
41952;SDS011;63613;28.200;112.870;2023-10-08T04:57:37;14.10;;;12.68;;
41952;SDS011;63613;28.200;112.870;2023-10-08T05:00:05;14.90;;;13.27;;
41952;SDS011;63613;28.200;112.870;2023-10-08T05:02:42;13.90;;;12.50;;
41952;SDS011;63613;28.200;112.870;2023-10-08T05:05:19;14.50;;;13.02;;
41952;SDS011;63613;28.200;112.870;2023-10-08T05:07:46;13.82;;;12.45;;
41952;SDS011;63613;28.200;112.870;2023-10-08T05:10:14;14.60;;;13.13;;
41952;SDS011;63613;28.200;112.870;2023-10-08T05:12:50;14.85;;;13.15;;
41952;SDS011;63613;28.200;112.870;2023-10-08T05:15:47;13.80;;;12.30;;
41952;SDS011;63613;28.200;112.870;2023-10-08T05:18:50;13.80;;;12.45;;
41952;SDS011;63613;28.200;112.870;2023-10-08T05:21:39;14.18;;;12.35;;
41952;SDS011;63613;28.200;112.870;2023-10-08T05:24:17;14.50;;;12.25;;
41952;SDS011;63613;28.200;112.870;2023-10-08T05:26:53;13.07;;;11.68;;
41952;SDS011;63613;28.200;112.870;2023-10-08T05:29:39;13.75;;;11.48;;
41952;SDS011;63613;28.200;112.870;2023-10-08T05:32:39;13.30;;;11.75;;
41952;SDS011;63613;28.200;112.870;2023-10-08T05:35:32;14.45;;;12.93;;
41952;SDS011;63613;28.200;112.870;2023-10-08T05:38:09;13.90;;;11.80;;
41952;SDS011;63613;28.200;112.870;2023-10-08T05:40:56;13.05;;;11.32;;
41952;SDS011;63613;28.200;112.870;2023-10-08T05:46:15;12.90;;;11.55;;
41952;SDS011;63613;28.200;112.870;2023-10-08T05:49:07;12.38;;;10.80;;
41952;SDS011;63613;28.200;112.870;2023-10-08T05:51:34;11.95;;;10.70;;
41952;SDS011;63613;28.200;112.870;2023-10-08T05:54:15;12.35;;;10.52;;
41952;SDS011;63613;28.200;112.870;2023-10-08T05:56:53;12.23;;;11.00;;
41952;SDS011;63613;28.200;112.870;2023-10-08T05:59:38;14.35;;;11.05;;
41952;SDS011;63613;28.200;112.870;2023-10-08T06:02:25;13.05;;;10.88;;
41952;SDS011;63613;28.200;112.870;2023-10-08T06:05:02;12.02;;;10.82;;
41952;SDS011;63613;28.200;112.870;2023-10-08T06:10:24;11.35;;;10.05;;
41952;SDS011;63613;28.200;112.870;2023-10-08T06:12:59;12.13;;;10.48;;
41952;SDS011;63613;28.200;112.870;2023-10-08T06:15:38;12.88;;;10.90;;
41952;SDS011;63613;28.200;112.870;2023-10-08T06:18:22;10.90;;;9.77;;
41952;SDS011;63613;28.200;112.870;2023-10-08T06:23:27;11.63;;;10.43;;
41952;SDS011;63613;28.200;112.870;2023-10-08T06:26:00;12.70;;;10.65;;
41952;SDS011;63613;28.200;112.870;2023-10-08T06:28:37;10.82;;;9.57;;
41952;SDS011;63613;28.200;112.870;2023-10-08T06:31:08;10.45;;;9.43;;
41952;SDS011;63613;28.200;112.870;2023-10-08T06:33:42;12.00;;;10.80;;
41952;SDS011;63613;28.200;112.870;2023-10-08T06:36:10;11.63;;;10.48;;
41952;SDS011;63613;28.200;112.870;2023-10-08T06:38:37;11.55;;;10.35;;
41952;SDS011;63613;28.200;112.870;2023-10-08T06:41:14;11.00;;;9.90;;
41952;SDS011;63613;28.200;112.870;2023-10-08T06:43:45;11.63;;;10.00;;
41952;SDS011;63613;28.200;112.870;2023-10-08T06:46:17;11.82;;;10.55;;
41952;SDS011;63613;28.200;112.870;2023-10-08T06:48:49;11.20;;;9.70;;
41952;SDS011;63613;28.200;112.870;2023-10-08T06:51:16;10.32;;;9.30;;
41952;SDS011;63613;28.200;112.870;2023-10-08T06:53:46;10.95;;;9.90;;
41952;SDS011;63613;28.200;112.870;2023-10-08T06:56:15;10.25;;;9.32;;
41952;SDS011;63613;28.200;112.870;2023-10-08T06:58:47;10.73;;;9.65;;
41952;SDS011;63613;28.200;112.870;2023-10-08T07:01:17;11.23;;;10.00;;
41952;SDS011;63613;28.200;112.870;2023-10-08T07:03:51;11.85;;;9.65;;
41952;SDS011;63613;28.200;112.870;2023-10-08T07:06:21;10.25;;;9.25;;
41952;SDS011;63613;28.200;112.870;2023-10-08T07:08:52;11.10;;;9.98;;
41952;SDS011;63613;28.200;112.870;2023-10-08T07:11:26;11.88;;;9.20;;
41952;SDS011;63613;28.200;112.870;2023-10-08T07:13:54;11.15;;;9.95;;
41952;SDS011;63613;28.200;112.870;2023-10-08T07:16:30;11.23;;;9.90;;
41952;SDS011;63613;28.200;112.870;2023-10-08T07:18:57;9.85;;;8.90;;
41952;SDS011;63613;28.200;112.870;2023-10-08T07:21:28;11.20;;;9.45;;
41952;SDS011;63613;28.200;112.870;2023-10-08T07:24:29;9.88;;;8.88;;
41952;SDS011;63613;28.200;112.870;2023-10-08T07:27:01;10.00;;;9.02;;
41952;SDS011;63613;28.200;112.870;2023-10-08T07:29:35;10.07;;;9.07;;
41952;SDS011;63613;28.200;112.870;2023-10-08T07:32:03;9.80;;;8.80;;
41952;SDS011;63613;28.200;112.870;2023-10-08T07:34:36;9.95;;;8.88;;
41952;SDS011;63613;28.200;112.870;2023-10-08T07:37:48;9.70;;;8.70;;
41952;SDS011;63613;28.200;112.870;2023-10-08T07:40:16;9.93;;;8.95;;
41952;SDS011;63613;28.200;112.870;2023-10-08T07:42:46;9.68;;;8.57;;
41952;SDS011;63613;28.200;112.870;2023-10-08T07:45:34;10.00;;;9.00;;
41952;SDS011;63613;28.200;112.870;2023-10-08T07:48:02;10.00;;;8.77;;
41952;SDS011;63613;28.200;112.870;2023-10-08T07:53:21;10.05;;;8.90;;
41952;SDS011;63613;28.200;112.870;2023-10-08T07:55:50;9.07;;;8.15;;
41952;SDS011;63613;28.200;112.870;2023-10-08T07:58:17;10.13;;;8.73;;
41952;SDS011;63613;28.200;112.870;2023-10-08T08:00:45;9.18;;;8.25;;
41952;SDS011;63613;28.200;112.870;2023-10-08T08:03:33;8.60;;;7.70;;
41952;SDS011;63613;28.200;112.870;2023-10-08T08:06:04;9.40;;;8.50;;
41952;SDS011;63613;28.200;112.870;2023-10-08T08:08:35;8.55;;;7.72;;
41952;SDS011;63613;28.200;112.870;2023-10-08T08:11:03;10.05;;;8.13;;
41952;SDS011;63613;28.200;112.870;2023-10-08T08:13:33;10.13;;;8.70;;
41952;SDS011;63613;28.200;112.870;2023-10-08T08:16:00;10.60;;;9.50;;
41952;SDS011;63613;28.200;112.870;2023-10-08T08:21:14;10.80;;;9.70;;
41952;SDS011;63613;28.200;112.870;2023-10-08T08:23:46;11.90;;;10.60;;
41952;SDS011;63613;28.200;112.870;2023-10-08T08:26:17;11.48;;;10.18;;
41952;SDS011;63613;28.200;112.870;2023-10-08T08:29:02;12.30;;;11.00;;
41952;SDS011;63613;28.200;112.870;2023-10-08T08:31:42;13.15;;;11.18;;
41952;SDS011;63613;28.200;112.870;2023-10-08T08:34:12;15.13;;;11.13;;
41952;SDS011;63613;28.200;112.870;2023-10-08T08:36:45;17.02;;;12.77;;
41952;SDS011;63613;28.200;112.870;2023-10-08T08:39:17;14.77;;;12.15;;
41952;SDS011;63613;28.200;112.870;2023-10-08T08:42:09;17.48;;;13.93;;
41952;SDS011;63613;28.200;112.870;2023-10-08T08:44:38;18.95;;;15.10;;
41952;SDS011;63613;28.200;112.870;2023-10-08T08:47:12;20.00;;;14.23;;
41952;SDS011;63613;28.200;112.870;2023-10-08T08:49:43;19.92;;;15.27;;
41952;SDS011;63613;28.200;112.870;2023-10-08T08:52:11;20.52;;;15.10;;
41952;SDS011;63613;28.200;112.870;2023-10-08T08:54:39;22.48;;;16.67;;
41952;SDS011;63613;28.200;112.870;2023-10-08T08:57:07;19.35;;;15.05;;
41952;SDS011;63613;28.200;112.870;2023-10-08T09:00:12;21.33;;;15.45;;
41952;SDS011;63613;28.200;112.870;2023-10-08T09:02:37;23.90;;;16.42;;
41952;SDS011;63613;28.200;112.870;2023-10-08T09:05:24;21.95;;;16.25;;
41952;SDS011;63613;28.200;112.870;2023-10-08T09:08:01;22.60;;;16.38;;
41952;SDS011;63613;28.200;112.870;2023-10-08T09:10:34;20.95;;;15.50;;
41952;SDS011;63613;28.200;112.870;2023-10-08T09:13:26;21.17;;;15.98;;
41952;SDS011;63613;28.200;112.870;2023-10-08T09:16:13;19.55;;;14.63;;
41952;SDS011;63613;28.200;112.870;2023-10-08T09:19:01;23.38;;;16.42;;
41952;SDS011;63613;28.200;112.870;2023-10-08T09:21:30;21.60;;;15.38;;
41952;SDS011;63613;28.200;112.870;2023-10-08T09:23:56;19.15;;;15.25;;
41952;SDS011;63613;28.200;112.870;2023-10-08T09:26:24;19.33;;;15.75;;
41952;SDS011;63613;28.200;112.870;2023-10-08T09:28:52;20.50;;;14.98;;
41952;SDS011;63613;28.200;112.870;2023-10-08T09:31:22;20.17;;;15.20;;
41952;SDS011;63613;28.200;112.870;2023-10-08T09:33:55;21.00;;;13.38;;
41952;SDS011;63613;28.200;112.870;2023-10-08T09:36:22;20.97;;;14.60;;
41952;SDS011;63613;28.200;112.870;2023-10-08T09:39:01;18.65;;;13.48;;
41952;SDS011;63613;28.200;112.870;2023-10-08T09:41:32;19.15;;;14.10;;
41952;SDS011;63613;28.200;112.870;2023-10-08T09:44:00;16.60;;;14.02;;
41952;SDS011;63613;28.200;112.870;2023-10-08T09:46:30;20.48;;;14.60;;
41952;SDS011;63613;28.200;112.870;2023-10-08T09:49:04;19.25;;;14.88;;
41952;SDS011;63613;28.200;112.870;2023-10-08T09:51:51;19.15;;;13.32;;
41952;SDS011;63613;28.200;112.870;2023-10-08T09:54:23;20.65;;;14.43;;
41952;SDS011;63613;28.200;112.870;2023-10-08T09:56:58;18.48;;;14.00;;
41952;SDS011;63613;28.200;112.870;2023-10-08T09:59:28;20.80;;;13.95;;
41952;SDS011;63613;28.200;112.870;2023-10-08T10:01:56;17.63;;;14.02;;
41952;SDS011;63613;28.200;112.870;2023-10-08T10:04:25;18.83;;;13.93;;
41952;SDS011;63613;28.200;112.870;2023-10-08T10:07:12;20.77;;;14.52;;
41952;SDS011;63613;28.200;112.870;2023-10-08T10:09:45;20.38;;;14.18;;
41952;SDS011;63613;28.200;112.870;2023-10-08T10:12:25;22.67;;;15.70;;
41952;SDS011;63613;28.200;112.870;2023-10-08T10:14:55;23.63;;;15.73;;
41952;SDS011;63613;28.200;112.870;2023-10-08T10:17:25;23.60;;;16.00;;
41952;SDS011;63613;28.200;112.870;2023-10-08T10:19:57;23.60;;;16.48;;
41952;SDS011;63613;28.200;112.870;2023-10-08T10:22:28;29.65;;;17.73;;
41952;SDS011;63613;28.200;112.870;2023-10-08T10:24:58;28.33;;;18.38;;
41952;SDS011;63613;28.200;112.870;2023-10-08T10:30:24;29.10;;;18.35;;
41952;SDS011;63613;28.200;112.870;2023-10-08T10:32:53;29.65;;;18.45;;
41952;SDS011;63613;28.200;112.870;2023-10-08T10:35:25;33.50;;;19.10;;
41952;SDS011;63613;28.200;112.870;2023-10-08T10:38:18;32.90;;;18.35;;
41952;SDS011;63613;28.200;112.870;2023-10-08T10:41:03;34.33;;;20.33;;
41952;SDS011;63613;28.200;112.870;2023-10-08T10:43:34;31.42;;;18.60;;
41952;SDS011;63613;28.200;112.870;2023-10-08T10:46:05;33.13;;;18.58;;
41952;SDS011;63613;28.200;112.870;2023-10-08T10:49:06;33.38;;;19.10;;
41952;SDS011;63613;28.200;112.870;2023-10-08T10:51:57;30.67;;;17.60;;
41952;SDS011;63613;28.200;112.870;2023-10-08T10:54:25;34.42;;;19.73;;
41952;SDS011;63613;28.200;112.870;2023-10-08T10:57:01;34.17;;;20.20;;
41952;SDS011;63613;28.200;112.870;2023-10-08T10:59:37;32.60;;;19.50;;
41952;SDS011;63613;28.200;112.870;2023-10-08T11:02:04;30.02;;;19.27;;
41952;SDS011;63613;28.200;112.870;2023-10-08T11:04:46;32.00;;;19.63;;
41952;SDS011;63613;28.200;112.870;2023-10-08T11:07:46;32.13;;;18.92;;
41952;SDS011;63613;28.200;112.870;2023-10-08T11:10:16;33.50;;;19.30;;
41952;SDS011;63613;28.200;112.870;2023-10-08T11:13:04;32.97;;;19.10;;
41952;SDS011;63613;28.200;112.870;2023-10-08T11:15:43;28.92;;;19.25;;
41952;SDS011;63613;28.200;112.870;2023-10-08T11:18:18;31.83;;;18.80;;
41952;SDS011;63613;28.200;112.870;2023-10-08T11:20:46;33.58;;;19.38;;
41952;SDS011;63613;28.200;112.870;2023-10-08T11:23:45;34.08;;;18.60;;
41952;SDS011;63613;28.200;112.870;2023-10-08T11:26:18;32.90;;;19.52;;
41952;SDS011;63613;28.200;112.870;2023-10-08T11:28:48;30.63;;;18.70;;
41952;SDS011;63613;28.200;112.870;2023-10-08T11:31:16;32.22;;;18.65;;
41952;SDS011;63613;28.200;112.870;2023-10-08T11:33:47;31.63;;;18.30;;
41952;SDS011;63613;28.200;112.870;2023-10-08T11:36:20;27.98;;;18.45;;
41952;SDS011;63613;28.200;112.870;2023-10-08T11:38:55;29.15;;;18.08;;
41952;SDS011;63613;28.200;112.870;2023-10-08T11:41:32;30.58;;;17.98;;
41952;SDS011;63613;28.200;112.870;2023-10-08T11:44:15;32.88;;;18.38;;
41952;SDS011;63613;28.200;112.870;2023-10-08T11:46:48;30.45;;;18.38;;
41952;SDS011;63613;28.200;112.870;2023-10-08T11:49:18;28.50;;;16.40;;
41952;SDS011;63613;28.200;112.870;2023-10-08T11:51:50;32.80;;;18.08;;
41952;SDS011;63613;28.200;112.870;2023-10-08T11:54:17;27.80;;;17.98;;
41952;SDS011;63613;28.200;112.870;2023-10-08T11:56:45;27.45;;;16.60;;
41952;SDS011;63613;28.200;112.870;2023-10-08T11:59:14;29.30;;;18.08;;
41952;SDS011;63613;28.200;112.870;2023-10-08T12:01:43;28.55;;;17.15;;
41952;SDS011;63613;28.200;112.870;2023-10-08T12:04:13;28.40;;;16.33;;
41952;SDS011;63613;28.200;112.870;2023-10-08T12:06:43;30.70;;;18.02;;
41952;SDS011;63613;28.200;112.870;2023-10-08T12:09:15;27.10;;;17.10;;
41952;SDS011;63613;28.200;112.870;2023-10-08T12:11:47;29.85;;;17.77;;
41952;SDS011;63613;28.200;112.870;2023-10-08T12:14:16;26.20;;;16.77;;
41952;SDS011;63613;28.200;112.870;2023-10-08T12:16:44;29.63;;;17.17;;
41952;SDS011;63613;28.200;112.870;2023-10-08T12:19:11;26.83;;;16.38;;
41952;SDS011;63613;28.200;112.870;2023-10-08T12:21:44;27.52;;;16.55;;
41952;SDS011;63613;28.200;112.870;2023-10-08T12:24:16;27.10;;;16.63;;
41952;SDS011;63613;28.200;112.870;2023-10-08T12:26:44;28.42;;;16.55;;
41952;SDS011;63613;28.200;112.870;2023-10-08T12:29:14;27.25;;;16.50;;
41952;SDS011;63613;28.200;112.870;2023-10-08T12:31:42;25.65;;;16.20;;
41952;SDS011;63613;28.200;112.870;2023-10-08T12:34:13;26.67;;;16.25;;
41952;SDS011;63613;28.200;112.870;2023-10-08T12:36:40;30.25;;;17.92;;
41952;SDS011;63613;28.200;112.870;2023-10-08T12:39:07;27.25;;;16.77;;
41952;SDS011;63613;28.200;112.870;2023-10-08T12:41:42;28.13;;;17.42;;
41952;SDS011;63613;28.200;112.870;2023-10-08T12:44:12;23.42;;;15.23;;
41952;SDS011;63613;28.200;112.870;2023-10-08T12:46:41;23.83;;;15.68;;
41952;SDS011;63613;28.200;112.870;2023-10-08T12:49:09;25.40;;;16.15;;
41952;SDS011;63613;28.200;112.870;2023-10-08T12:51:38;26.48;;;17.08;;
41952;SDS011;63613;28.200;112.870;2023-10-08T12:54:06;29.13;;;17.02;;
41952;SDS011;63613;28.200;112.870;2023-10-08T12:56:36;26.35;;;16.92;;
41952;SDS011;63613;28.200;112.870;2023-10-08T12:59:24;25.70;;;15.80;;
41952;SDS011;63613;28.200;112.870;2023-10-08T13:01:55;27.02;;;17.08;;
41952;SDS011;63613;28.200;112.870;2023-10-08T13:04:27;24.05;;;14.88;;
41952;SDS011;63613;28.200;112.870;2023-10-08T13:07:00;26.85;;;15.55;;
41952;SDS011;63613;28.200;112.870;2023-10-08T13:09:30;27.52;;;15.48;;
41952;SDS011;63613;28.200;112.870;2023-10-08T13:12:03;27.13;;;15.52;;
41952;SDS011;63613;28.200;112.870;2023-10-08T13:14:30;27.33;;;15.50;;
41952;SDS011;63613;28.200;112.870;2023-10-08T13:17:00;24.27;;;16.15;;
41952;SDS011;63613;28.200;112.870;2023-10-08T13:19:27;24.45;;;15.90;;
41952;SDS011;63613;28.200;112.870;2023-10-08T13:21:59;23.98;;;14.80;;
41952;SDS011;63613;28.200;112.870;2023-10-08T13:24:28;25.27;;;16.20;;
41952;SDS011;63613;28.200;112.870;2023-10-08T13:26:58;23.88;;;15.10;;
41952;SDS011;63613;28.200;112.870;2023-10-08T13:29:28;22.90;;;14.43;;
41952;SDS011;63613;28.200;112.870;2023-10-08T13:31:58;24.33;;;15.55;;
41952;SDS011;63613;28.200;112.870;2023-10-08T13:34:25;22.00;;;14.30;;
41952;SDS011;63613;28.200;112.870;2023-10-08T13:37:12;19.95;;;13.60;;
41952;SDS011;63613;28.200;112.870;2023-10-08T13:39:41;22.42;;;14.20;;
41952;SDS011;63613;28.200;112.870;2023-10-08T13:42:08;22.42;;;13.88;;
41952;SDS011;63613;28.200;112.870;2023-10-08T13:44:41;21.27;;;14.95;;
41952;SDS011;63613;28.200;112.870;2023-10-08T13:47:10;21.45;;;14.93;;
41952;SDS011;63613;28.200;112.870;2023-10-08T13:49:41;20.35;;;13.85;;
41952;SDS011;63613;28.200;112.870;2023-10-08T13:52:10;22.48;;;14.88;;
41952;SDS011;63613;28.200;112.870;2023-10-08T13:54:37;22.77;;;15.00;;
41952;SDS011;63613;28.200;112.870;2023-10-08T13:57:07;24.02;;;14.77;;
41952;SDS011;63613;28.200;112.870;2023-10-08T13:59:40;19.55;;;13.75;;
41952;SDS011;63613;28.200;112.870;2023-10-08T14:02:09;21.88;;;14.27;;
41952;SDS011;63613;28.200;112.870;2023-10-08T14:04:44;22.58;;;14.23;;
41952;SDS011;63613;28.200;112.870;2023-10-08T14:07:15;21.52;;;15.07;;
41952;SDS011;63613;28.200;112.870;2023-10-08T14:09:42;21.25;;;14.48;;
41952;SDS011;63613;28.200;112.870;2023-10-08T14:12:11;22.88;;;14.63;;
41952;SDS011;63613;28.200;112.870;2023-10-08T14:14:41;23.08;;;14.63;;
41952;SDS011;63613;28.200;112.870;2023-10-08T14:20:03;21.52;;;14.65;;
41952;SDS011;63613;28.200;112.870;2023-10-08T14:22:38;21.67;;;15.27;;
41952;SDS011;63613;28.200;112.870;2023-10-08T14:25:08;21.58;;;14.43;;
41952;SDS011;63613;28.200;112.870;2023-10-08T14:27:42;21.70;;;15.07;;
41952;SDS011;63613;28.200;112.870;2023-10-08T14:30:17;22.20;;;14.45;;
41952;SDS011;63613;28.200;112.870;2023-10-08T14:32:52;21.67;;;13.68;;
41952;SDS011;63613;28.200;112.870;2023-10-08T14:35:23;20.58;;;14.18;;
41952;SDS011;63613;28.200;112.870;2023-10-08T14:38:09;21.90;;;14.93;;
41952;SDS011;63613;28.200;112.870;2023-10-08T14:41:09;21.48;;;14.48;;
41952;SDS011;63613;28.200;112.870;2023-10-08T14:43:55;19.17;;;13.98;;
41952;SDS011;63613;28.200;112.870;2023-10-08T14:46:26;18.38;;;13.43;;
41952;SDS011;63613;28.200;112.870;2023-10-08T14:48:56;20.55;;;14.35;;
41952;SDS011;63613;28.200;112.870;2023-10-08T14:51:43;20.23;;;13.18;;
41952;SDS011;63613;28.200;112.870;2023-10-08T14:54:14;19.60;;;13.57;;
41952;SDS011;63613;28.200;112.870;2023-10-08T14:56:41;21.88;;;14.80;;
41952;SDS011;63613;28.200;112.870;2023-10-08T14:59:08;18.63;;;13.05;;